sensor_id;sensor_type;location;lat;lon;timestamp;temperature;humidity
72576;DHT22;60613;48.658;2.328;2022-12-10T07:02:37;21.60;28.60
72576;DHT22;60613;48.658;2.328;2022-12-10T07:05:03;21.60;29.30
72576;DHT22;60613;48.658;2.328;2022-12-10T07:07:29;21.60;29.30
72576;DHT22;60613;48.658;2.328;2022-12-10T07:09:54;21.70;29.20
72576;DHT22;60613;48.658;2.328;2022-12-10T07:12:20;21.60;30.00
72576;DHT22;60613;48.658;2.328;2022-12-10T07:14:45;21.70;29.00
72576;DHT22;60613;48.658;2.328;2022-12-10T07:17:11;21.70;28.80
72576;DHT22;60613;48.658;2.328;2022-12-10T07:19:37;21.80;28.80
72576;DHT22;60613;48.658;2.328;2022-12-10T07:22:03;21.90;28.70
72576;DHT22;60613;48.658;2.328;2022-12-10T07:24:28;21.80;28.70
72576;DHT22;60613;48.658;2.328;2022-12-10T07:26:54;21.80;28.70
72576;DHT22;60613;48.658;2.328;2022-12-10T07:29:21;21.70;28.70
72576;DHT22;60613;48.658;2.328;2022-12-10T07:31:47;21.70;28.90
72576;DHT22;60613;48.658;2.328;2022-12-10T07:34:14;21.70;29.00
72576;DHT22;60613;48.658;2.328;2022-12-10T07:36:40;21.70;28.80
72576;DHT22;60613;48.658;2.328;2022-12-10T07:39:08;21.60;28.70
72576;DHT22;60613;48.658;2.328;2022-12-10T07:41:34;21.60;28.70
72576;DHT22;60613;48.658;2.328;2022-12-10T07:44:02;21.60;28.70
72576;DHT22;60613;48.658;2.328;2022-12-10T07:46:30;21.60;28.60
72576;DHT22;60613;48.658;2.328;2022-12-10T07:48:56;21.60;28.60
72576;DHT22;60613;48.658;2.328;2022-12-10T07:51:24;21.60;28.60
72576;DHT22;60613;48.658;2.328;2022-12-10T07:53:53;21.60;28.50
72576;DHT22;60613;48.658;2.328;2022-12-10T07:56:20;21.60;28.60
72576;DHT22;60613;48.658;2.328;2022-12-10T07:58:47;21.60;28.50
72576;DHT22;60613;48.658;2.328;2022-12-10T08:01:15;21.70;28.50
72576;DHT22;60613;48.658;2.328;2022-12-10T08:03:41;21.70;28.50
72576;DHT22;60613;48.658;2.328;2022-12-10T08:06:15;21.60;28.50
72576;DHT22;60613;48.658;2.328;2022-12-10T08:08:43;21.70;28.50
72576;DHT22;60613;48.658;2.328;2022-12-10T08:11:09;21.70;28.50
72576;DHT22;60613;48.658;2.328;2022-12-10T08:13:35;21.70;28.50
72576;DHT22;60613;48.658;2.328;2022-12-10T08:16:15;21.70;28.50
72576;DHT22;60613;48.658;2.328;2022-12-10T08:18:42;21.70;28.50
72576;DHT22;60613;48.658;2.328;2022-12-10T08:21:11;21.70;28.50
72576;DHT22;60613;48.658;2.328;2022-12-10T08:23:37;21.70;28.50
72576;DHT22;60613;48.658;2.328;2022-12-10T08:26:04;21.70;28.70
72576;DHT22;60613;48.658;2.328;2022-12-10T08:28:30;21.70;28.60
72576;DHT22;60613;48.658;2.328;2022-12-10T08:30:56;21.70;28.60
72576;DHT22;60613;48.658;2.328;2022-12-10T08:33:21;21.70;28.70
72576;DHT22;60613;48.658;2.328;2022-12-10T08:35:47;21.70;29.00
72576;DHT22;60613;48.658;2.328;2022-12-10T08:38:13;21.70;29.20
72576;DHT22;60613;48.658;2.328;2022-12-10T08:40:39;21.70;29.60
72576;DHT22;60613;48.658;2.328;2022-12-10T08:43:06;21.80;29.90
72576;DHT22;60613;48.658;2.328;2022-12-10T08:45:31;21.90;30.00
72576;DHT22;60613;48.658;2.328;2022-12-10T08:47:57;22.00;30.00
72576;DHT22;60613;48.658;2.328;2022-12-10T08:50:22;22.10;30.00
72576;DHT22;60613;48.658;2.328;2022-12-10T08:52:48;22.20;29.90
72576;DHT22;60613;48.658;2.328;2022-12-10T08:55:14;22.30;29.90
72576;DHT22;60613;48.658;2.328;2022-12-10T08:57:39;22.30;28.60
72576;DHT22;60613;48.658;2.328;2022-12-10T09:00:06;22.30;28.60
72576;DHT22;60613;48.658;2.328;2022-12-10T09:02:32;22.20;28.60
72576;DHT22;60613;48.658;2.328;2022-12-10T09:04:58;22.20;29.20
72576;DHT22;60613;48.658;2.328;2022-12-10T09:07:23;22.10;29.20
72576;DHT22;60613;48.658;2.328;2022-12-10T09:09:49;22.10;29.50
72576;DHT22;60613;48.658;2.328;2022-12-10T09:12:14;22.00;29.50
72576;DHT22;60613;48.658;2.328;2022-12-10T09:14:40;22.00;29.30
72576;DHT22;60613;48.658;2.328;2022-12-10T09:17:07;22.10;29.30
72576;DHT22;60613;48.658;2.328;2022-12-10T09:19:33;22.10;29.30
72576;DHT22;60613;48.658;2.328;2022-12-10T09:21:58;22.10;29.30
72576;DHT22;60613;48.658;2.328;2022-12-10T09:24:24;22.10;29.30
72576;DHT22;60613;48.658;2.328;2022-12-10T09:26:50;22.10;29.00
72576;DHT22;60613;48.658;2.328;2022-12-10T09:29:15;22.10;29.20
72576;DHT22;60613;48.658;2.328;2022-12-10T09:31:41;22.10;29.00
72576;DHT22;60613;48.658;2.328;2022-12-10T09:34:07;22.00;29.10
72576;DHT22;60613;48.658;2.328;2022-12-10T09:36:32;22.00;29.20
72576;DHT22;60613;48.658;2.328;2022-12-10T09:38:58;22.10;29.20
72576;DHT22;60613;48.658;2.328;2022-12-10T09:44:52;22.00;29.10
72576;DHT22;60613;48.658;2.328;2022-12-10T09:47:26;22.10;29.00
72576;DHT22;60613;48.658;2.328;2022-12-10T09:50:03;22.00;29.40
72576;DHT22;60613;48.658;2.328;2022-12-10T09:52:40;22.00;29.00
72576;DHT22;60613;48.658;2.328;2022-12-10T09:55:19;22.00;28.90
72576;DHT22;60613;48.658;2.328;2022-12-10T09:57:49;22.00;29.00
72576;DHT22;60613;48.658;2.328;2022-12-10T10:00:32;22.00;29.00
72576;DHT22;60613;48.658;2.328;2022-12-10T10:02:59;22.00;29.10
72576;DHT22;60613;48.658;2.328;2022-12-10T10:05:47;22.00;29.00
72576;DHT22;60613;48.658;2.328;2022-12-10T10:10:44;22.00;29.90
72576;DHT22;60613;48.658;2.328;2022-12-10T10:18:41;22.00;29.00
72576;DHT22;60613;48.658;2.328;2022-12-10T10:21:30;22.00;29.10
72576;DHT22;60613;48.658;2.328;2022-12-10T10:23:58;22.00;29.10
72576;DHT22;60613;48.658;2.328;2022-12-10T10:26:28;22.10;29.10
72576;DHT22;60613;48.658;2.328;2022-12-10T10:28:57;22.00;29.00
72576;DHT22;60613;48.658;2.328;2022-12-10T10:31:27;22.00;29.10
72576;DHT22;60613;48.658;2.328;2022-12-10T10:33:57;22.00;29.10
72576;DHT22;60613;48.658;2.328;2022-12-10T10:36:25;22.00;29.20
72576;DHT22;60613;48.658;2.328;2022-12-10T10:38:52;22.00;29.10
72576;DHT22;60613;48.658;2.328;2022-12-10T10:41:18;22.00;29.10
72576;DHT22;60613;48.658;2.328;2022-12-10T10:43:44;22.00;29.10
72576;DHT22;60613;48.658;2.328;2022-12-10T10:46:23;22.10;29.10
72576;DHT22;60613;48.658;2.328;2022-12-10T10:48:49;22.10;29.10
72576;DHT22;60613;48.658;2.328;2022-12-10T10:51:22;22.10;29.10
72576;DHT22;60613;48.658;2.328;2022-12-10T10:53:52;22.10;29.10
72576;DHT22;60613;48.658;2.328;2022-12-10T10:56:26;22.10;29.10
72576;DHT22;60613;48.658;2.328;2022-12-10T11:01:48;22.10;29.20
72576;DHT22;60613;48.658;2.328;2022-12-10T11:04:16;22.10;29.00
72576;DHT22;60613;48.658;2.328;2022-12-10T11:06:43;22.10;29.10
72576;DHT22;60613;48.658;2.328;2022-12-10T11:09:21;22.10;29.00
72576;DHT22;60613;48.658;2.328;2022-12-10T11:11:52;22.10;29.00
72576;DHT22;60613;48.658;2.328;2022-12-10T11:16:49;22.10;29.90
72576;DHT22;60613;48.658;2.328;2022-12-10T11:19:23;22.20;28.90
72576;DHT22;60613;48.658;2.328;2022-12-10T11:21:48;22.20;28.90
72576;DHT22;60613;48.658;2.328;2022-12-10T11:24:17;22.30;28.90
72576;DHT22;60613;48.658;2.328;2022-12-10T11:37:33;22.30;28.50
72576;DHT22;60613;48.658;2.328;2022-12-10T11:43:05;22.30;28.50
72576;DHT22;60613;48.658;2.328;2022-12-10T11:45:56;22.30;28.60
72576;DHT22;60613;48.658;2.328;2022-12-10T11:56:44;22.20;28.40
72576;DHT22;60613;48.658;2.328;2022-12-10T11:59:16;22.20;28.50
72576;DHT22;60613;48.658;2.328;2022-12-10T12:06:59;22.20;28.50
72576;DHT22;60613;48.658;2.328;2022-12-10T12:15:08;22.20;28.60
72576;DHT22;60613;48.658;2.328;2022-12-10T12:17:43;22.30;28.60
72576;DHT22;60613;48.658;2.328;2022-12-10T12:20:22;22.20;28.60
72576;DHT22;60613;48.658;2.328;2022-12-10T12:22:57;22.30;28.60
72576;DHT22;60613;48.658;2.328;2022-12-10T12:25:31;22.30;28.60
72576;DHT22;60613;48.658;2.328;2022-12-10T12:28:10;22.30;28.60
72576;DHT22;60613;48.658;2.328;2022-12-10T12:30:37;22.30;28.70
72576;DHT22;60613;48.658;2.328;2022-12-10T12:33:13;22.30;28.70
72576;DHT22;60613;48.658;2.328;2022-12-10T12:35:50;22.20;28.70
72576;DHT22;60613;48.658;2.328;2022-12-10T12:41:04;22.20;28.70
72576;DHT22;60613;48.658;2.328;2022-12-10T12:46:04;22.30;28.70
72576;DHT22;60613;48.658;2.328;2022-12-10T12:51:21;22.30;28.70
72576;DHT22;60613;48.658;2.328;2022-12-10T12:53:48;22.30;28.70
72576;DHT22;60613;48.658;2.328;2022-12-10T12:59:08;22.30;29.00
72576;DHT22;60613;48.658;2.328;2022-12-10T13:01:53;22.20;29.00
72576;DHT22;60613;48.658;2.328;2022-12-10T13:04:20;22.30;29.00
72576;DHT22;60613;48.658;2.328;2022-12-10T13:10:17;22.40;29.00
72576;DHT22;60613;48.658;2.328;2022-12-10T13:12:51;22.50;29.00
72576;DHT22;60613;48.658;2.328;2022-12-10T13:20:39;22.60;29.00
72576;DHT22;60613;48.658;2.328;2022-12-10T13:41:34;22.70;28.90
72576;DHT22;60613;48.658;2.328;2022-12-10T13:44:48;22.70;28.80
72576;DHT22;60613;48.658;2.328;2022-12-10T13:47:43;22.70;28.80
72576;DHT22;60613;48.658;2.328;2022-12-10T14:01:05;22.70;28.70
72576;DHT22;60613;48.658;2.328;2022-12-10T14:11:32;22.70;28.80
72576;DHT22;60613;48.658;2.328;2022-12-10T14:13:59;22.70;28.80
72576;DHT22;60613;48.658;2.328;2022-12-10T14:16:31;22.70;28.80
72576;DHT22;60613;48.658;2.328;2022-12-10T14:19:07;22.70;28.80
72576;DHT22;60613;48.658;2.328;2022-12-10T14:21:36;22.70;28.70
72576;DHT22;60613;48.658;2.328;2022-12-10T14:24:04;22.70;28.70
72576;DHT22;60613;48.658;2.328;2022-12-10T14:26:32;22.70;28.70
72576;DHT22;60613;48.658;2.328;2022-12-10T14:29:19;22.80;28.90
72576;DHT22;60613;48.658;2.328;2022-12-10T14:31:48;22.80;28.80
72576;DHT22;60613;48.658;2.328;2022-12-10T14:34:21;22.80;28.70
72576;DHT22;60613;48.658;2.328;2022-12-10T14:36:56;22.80;28.80
72576;DHT22;60613;48.658;2.328;2022-12-10T14:39:28;22.80;28.70
72576;DHT22;60613;48.658;2.328;2022-12-10T14:41:57;22.70;29.10
72576;DHT22;60613;48.658;2.328;2022-12-10T14:44:24;22.70;28.80
72576;DHT22;60613;48.658;2.328;2022-12-10T14:46:51;22.70;29.10
72576;DHT22;60613;48.658;2.328;2022-12-10T14:49:26;22.70;29.20
72576;DHT22;60613;48.658;2.328;2022-12-10T14:51:52;22.70;28.80
72576;DHT22;60613;48.658;2.328;2022-12-10T14:54:27;22.70;29.00
72576;DHT22;60613;48.658;2.328;2022-12-10T14:56:54;22.60;28.80
72576;DHT22;60613;48.658;2.328;2022-12-10T14:59:28;22.60;28.90
72576;DHT22;60613;48.658;2.328;2022-12-10T15:01:59;22.60;28.80
72576;DHT22;60613;48.658;2.328;2022-12-10T15:04:40;22.60;28.80
72576;DHT22;60613;48.658;2.328;2022-12-10T15:07:13;22.60;28.80
72576;DHT22;60613;48.658;2.328;2022-12-10T15:09:40;22.60;28.80
72576;DHT22;60613;48.658;2.328;2022-12-10T15:12:15;22.60;28.80
72576;DHT22;60613;48.658;2.328;2022-12-10T15:14:44;22.60;28.80
72576;DHT22;60613;48.658;2.328;2022-12-10T15:17:34;22.60;29.00
72576;DHT22;60613;48.658;2.328;2022-12-10T15:20:00;22.60;29.00
72576;DHT22;60613;48.658;2.328;2022-12-10T15:22:27;22.60;29.00
72576;DHT22;60613;48.658;2.328;2022-12-10T15:24:54;22.60;28.80
72576;DHT22;60613;48.658;2.328;2022-12-10T15:27:24;22.50;28.70
72576;DHT22;60613;48.658;2.328;2022-12-10T15:29:50;22.50;29.00
72576;DHT22;60613;48.658;2.328;2022-12-10T15:32:22;22.60;28.80
72576;DHT22;60613;48.658;2.328;2022-12-10T15:34:55;22.50;28.70
72576;DHT22;60613;48.658;2.328;2022-12-10T15:37:24;22.50;28.60
72576;DHT22;60613;48.658;2.328;2022-12-10T15:39:53;22.50;28.60
72576;DHT22;60613;48.658;2.328;2022-12-10T15:45:01;22.50;29.00
72576;DHT22;60613;48.658;2.328;2022-12-10T15:47:27;22.50;28.90
72576;DHT22;60613;48.658;2.328;2022-12-10T15:49:54;22.50;28.90
72576;DHT22;60613;48.658;2.328;2022-12-10T15:52:23;22.50;29.40
72576;DHT22;60613;48.658;2.328;2022-12-10T15:54:51;22.50;29.70
72576;DHT22;60613;48.658;2.328;2022-12-10T15:57:21;22.50;29.50
72576;DHT22;60613;48.658;2.328;2022-12-10T15:59:48;22.50;29.80
72576;DHT22;60613;48.658;2.328;2022-12-10T16:02:20;22.50;30.00
72576;DHT22;60613;48.658;2.328;2022-12-10T16:04:49;22.60;30.30
72576;DHT22;60613;48.658;2.328;2022-12-10T16:07:15;22.50;30.80
72576;DHT22;60613;48.658;2.328;2022-12-10T16:09:41;22.60;31.00
72576;DHT22;60613;48.658;2.328;2022-12-10T16:12:15;22.60;30.70
72576;DHT22;60613;48.658;2.328;2022-12-10T16:14:49;22.70;31.30
72576;DHT22;60613;48.658;2.328;2022-12-10T16:17:16;22.70;31.30
72576;DHT22;60613;48.658;2.328;2022-12-10T16:19:42;22.70;31.80
72576;DHT22;60613;48.658;2.328;2022-12-10T16:22:09;22.70;32.20
72576;DHT22;60613;48.658;2.328;2022-12-10T16:24:34;22.80;32.30
72576;DHT22;60613;48.658;2.328;2022-12-10T16:27:00;22.80;32.60
72576;DHT22;60613;48.658;2.328;2022-12-10T16:29:26;22.80;32.60
72576;DHT22;60613;48.658;2.328;2022-12-10T16:31:51;22.80;32.80
72576;DHT22;60613;48.658;2.328;2022-12-10T16:34:17;22.80;32.20
72576;DHT22;60613;48.658;2.328;2022-12-10T16:36:42;22.70;31.70
72576;DHT22;60613;48.658;2.328;2022-12-10T16:39:08;22.70;31.50
72576;DHT22;60613;48.658;2.328;2022-12-10T16:41:35;22.70;30.00
72576;DHT22;60613;48.658;2.328;2022-12-10T16:44:01;22.70;31.40
72576;DHT22;60613;48.658;2.328;2022-12-10T16:46:26;22.60;31.00
72576;DHT22;60613;48.658;2.328;2022-12-10T16:48:52;22.60;31.30
72576;DHT22;60613;48.658;2.328;2022-12-10T16:51:23;22.60;30.60
72576;DHT22;60613;48.658;2.328;2022-12-10T16:53:50;22.60;30.00
72576;DHT22;60613;48.658;2.328;2022-12-10T16:56:16;22.60;30.10
72576;DHT22;60613;48.658;2.328;2022-12-10T16:58:43;22.60;30.00
72576;DHT22;60613;48.658;2.328;2022-12-10T17:01:17;22.60;30.00
72576;DHT22;60613;48.658;2.328;2022-12-10T17:03:43;22.60;30.00
72576;DHT22;60613;48.658;2.328;2022-12-10T17:06:09;22.60;29.90
72576;DHT22;60613;48.658;2.328;2022-12-10T17:08:35;22.60;30.00
72576;DHT22;60613;48.658;2.328;2022-12-10T17:11:04;22.60;29.80
72576;DHT22;60613;48.658;2.328;2022-12-10T17:13:53;22.50;29.90
72576;DHT22;60613;48.658;2.328;2022-12-10T17:16:21;22.50;29.70
72576;DHT22;60613;48.658;2.328;2022-12-10T17:18:47;22.50;29.70
72576;DHT22;60613;48.658;2.328;2022-12-10T17:21:13;22.50;29.80
72576;DHT22;60613;48.658;2.328;2022-12-10T17:23:38;22.50;29.80
72576;DHT22;60613;48.658;2.328;2022-12-10T17:26:04;22.50;29.60
72576;DHT22;60613;48.658;2.328;2022-12-10T17:28:31;22.50;29.80
72576;DHT22;60613;48.658;2.328;2022-12-10T17:30:57;22.50;29.70
72576;DHT22;60613;48.658;2.328;2022-12-10T17:33:23;22.50;29.50
72576;DHT22;60613;48.658;2.328;2022-12-10T17:35:50;22.50;29.60
72576;DHT22;60613;48.658;2.328;2022-12-10T17:38:23;22.50;29.50
72576;DHT22;60613;48.658;2.328;2022-12-10T17:40:49;22.50;29.60
72576;DHT22;60613;48.658;2.328;2022-12-10T17:43:14;22.50;29.60
72576;DHT22;60613;48.658;2.328;2022-12-10T17:45:41;22.50;29.50
72576;DHT22;60613;48.658;2.328;2022-12-10T17:48:12;22.50;29.60
72576;DHT22;60613;48.658;2.328;2022-12-10T17:50:38;22.50;29.50
72576;DHT22;60613;48.658;2.328;2022-12-10T17:53:05;22.40;29.40
72576;DHT22;60613;48.658;2.328;2022-12-10T17:55:35;22.40;29.60
72576;DHT22;60613;48.658;2.328;2022-12-10T17:58:02;22.40;29.30
72576;DHT22;60613;48.658;2.328;2022-12-10T18:00:31;22.40;29.50
72576;DHT22;60613;48.658;2.328;2022-12-10T18:02:57;22.30;29.20
72576;DHT22;60613;48.658;2.328;2022-12-10T18:05:23;22.20;29.20
72576;DHT22;60613;48.658;2.328;2022-12-10T18:07:49;22.20;29.30
72576;DHT22;60613;48.658;2.328;2022-12-10T18:10:20;22.10;29.30
72576;DHT22;60613;48.658;2.328;2022-12-10T18:12:47;22.10;29.30
72576;DHT22;60613;48.658;2.328;2022-12-10T18:15:14;22.10;29.30
72576;DHT22;60613;48.658;2.328;2022-12-10T18:17:39;22.10;29.30
72576;DHT22;60613;48.658;2.328;2022-12-10T18:20:06;22.10;29.40
72576;DHT22;60613;48.658;2.328;2022-12-10T18:22:33;22.10;29.40
72576;DHT22;60613;48.658;2.328;2022-12-10T18:25:00;22.10;29.40
72576;DHT22;60613;48.658;2.328;2022-12-10T18:27:26;22.00;29.40
72576;DHT22;60613;48.658;2.328;2022-12-10T18:29:51;22.00;29.40
72576;DHT22;60613;48.658;2.328;2022-12-10T18:32:17;22.00;29.40
72576;DHT22;60613;48.658;2.328;2022-12-10T18:34:43;22.00;29.40
72576;DHT22;60613;48.658;2.328;2022-12-10T18:37:09;22.00;29.40
72576;DHT22;60613;48.658;2.328;2022-12-10T18:39:35;22.00;29.40
72576;DHT22;60613;48.658;2.328;2022-12-10T18:42:02;22.00;29.30
72576;DHT22;60613;48.658;2.328;2022-12-10T18:44:28;22.00;29.30
72576;DHT22;60613;48.658;2.328;2022-12-10T18:46:56;22.00;29.50
72576;DHT22;60613;48.658;2.328;2022-12-10T18:49:23;21.90;29.40
72576;DHT22;60613;48.658;2.328;2022-12-10T18:51:49;21.90;29.40
72576;DHT22;60613;48.658;2.328;2022-12-10T18:54:15;21.90;29.30
72576;DHT22;60613;48.658;2.328;2022-12-10T18:56:42;21.90;29.30
72576;DHT22;60613;48.658;2.328;2022-12-10T18:59:14;21.90;29.30
72576;DHT22;60613;48.658;2.328;2022-12-10T19:01:40;21.90;29.40
72576;DHT22;60613;48.658;2.328;2022-12-10T19:04:05;21.90;29.30
72576;DHT22;60613;48.658;2.328;2022-12-10T19:06:32;21.90;29.20
72576;DHT22;60613;48.658;2.328;2022-12-10T19:08:59;21.90;29.10
72576;DHT22;60613;48.658;2.328;2022-12-10T19:11:25;21.90;29.30
72576;DHT22;60613;48.658;2.328;2022-12-10T19:13:51;21.90;29.30
72576;DHT22;60613;48.658;2.328;2022-12-10T19:16:20;21.90;29.30
72576;DHT22;60613;48.658;2.328;2022-12-10T19:18:47;21.90;29.30
72576;DHT22;60613;48.658;2.328;2022-12-10T19:21:13;21.90;29.20
72576;DHT22;60613;48.658;2.328;2022-12-10T19:23:39;21.90;29.20
72576;DHT22;60613;48.658;2.328;2022-12-10T19:28:53;21.90;29.30
72576;DHT22;60613;48.658;2.328;2022-12-10T19:31:19;21.90;29.20
72576;DHT22;60613;48.658;2.328;2022-12-10T19:33:45;21.90;29.20
72576;DHT22;60613;48.658;2.328;2022-12-10T19:36:22;21.80;29.20
72576;DHT22;60613;48.658;2.328;2022-12-10T19:38:49;21.80;29.20
72576;DHT22;60613;48.658;2.328;2022-12-10T19:41:15;21.80;29.20
72576;DHT22;60613;48.658;2.328;2022-12-10T19:43:41;21.80;29.70
72576;DHT22;60613;48.658;2.328;2022-12-10T19:46:19;21.80;29.70
72576;DHT22;60613;48.658;2.328;2022-12-10T19:48:45;21.70;29.70
72576;DHT22;60613;48.658;2.328;2022-12-10T19:51:11;21.70;29.70
72576;DHT22;60613;48.658;2.328;2022-12-10T19:53:38;21.70;29.80
72576;DHT22;60613;48.658;2.328;2022-12-10T19:56:25;21.70;29.70
72576;DHT22;60613;48.658;2.328;2022-12-10T19:58:54;21.70;29.80
72576;DHT22;60613;48.658;2.328;2022-12-10T20:01:20;21.70;29.70
72576;DHT22;60613;48.658;2.328;2022-12-10T20:03:46;21.70;29.70
72576;DHT22;60613;48.658;2.328;2022-12-10T20:06:17;21.70;29.80
72576;DHT22;60613;48.658;2.328;2022-12-10T20:08:44;21.70;29.70
72576;DHT22;60613;48.658;2.328;2022-12-10T20:11:10;21.70;29.70
72576;DHT22;60613;48.658;2.328;2022-12-10T20:13:36;21.70;29.60
72576;DHT22;60613;48.658;2.328;2022-12-10T20:16:02;21.70;29.60
72576;DHT22;60613;48.658;2.328;2022-12-10T20:18:29;21.70;29.60
72576;DHT22;60613;48.658;2.328;2022-12-10T20:20:55;21.70;29.60
72576;DHT22;60613;48.658;2.328;2022-12-10T20:23:20;21.70;29.70
72576;DHT22;60613;48.658;2.328;2022-12-10T20:25:48;21.60;29.60
72576;DHT22;60613;48.658;2.328;2022-12-10T20:28:14;21.70;29.60
72576;DHT22;60613;48.658;2.328;2022-12-10T20:30:42;21.60;29.60
72576;DHT22;60613;48.658;2.328;2022-12-10T20:33:08;21.70;29.70
72576;DHT22;60613;48.658;2.328;2022-12-10T20:35:33;21.60;29.60
72576;DHT22;60613;48.658;2.328;2022-12-10T20:37:59;21.70;29.60
72576;DHT22;60613;48.658;2.328;2022-12-10T20:40:25;21.60;29.60
72576;DHT22;60613;48.658;2.328;2022-12-10T20:42:52;21.60;29.60
72576;DHT22;60613;48.658;2.328;2022-12-10T20:45:18;21.60;29.60
72576;DHT22;60613;48.658;2.328;2022-12-10T20:47:44;21.60;29.60
72576;DHT22;60613;48.658;2.328;2022-12-10T20:50:16;21.60;29.60
72576;DHT22;60613;48.658;2.328;2022-12-10T20:52:42;21.60;29.60
72576;DHT22;60613;48.658;2.328;2022-12-10T20:55:09;21.60;29.70
72576;DHT22;60613;48.658;2.328;2022-12-10T20:57:36;21.60;29.60
72576;DHT22;60613;48.658;2.328;2022-12-10T21:00:05;21.60;29.60
72576;DHT22;60613;48.658;2.328;2022-12-10T21:02:31;21.60;29.60
72576;DHT22;60613;48.658;2.328;2022-12-10T21:04:57;21.50;29.60
72576;DHT22;60613;48.658;2.328;2022-12-10T21:07:23;21.60;29.60
72576;DHT22;60613;48.658;2.328;2022-12-10T21:09:48;21.50;29.60
72576;DHT22;60613;48.658;2.328;2022-12-10T21:12:14;21.60;29.60
72576;DHT22;60613;48.658;2.328;2022-12-10T21:14:40;21.50;29.60
72576;DHT22;60613;48.658;2.328;2022-12-10T21:17:06;21.50;29.60
72576;DHT22;60613;48.658;2.328;2022-12-10T21:19:31;21.60;29.70
72576;DHT22;60613;48.658;2.328;2022-12-10T21:21:57;21.50;29.70
72576;DHT22;60613;48.658;2.328;2022-12-10T21:24:24;21.50;30.70
72576;DHT22;60613;48.658;2.328;2022-12-10T21:26:50;21.50;29.60
72576;DHT22;60613;48.658;2.328;2022-12-10T21:29:15;21.50;29.70
72576;DHT22;60613;48.658;2.328;2022-12-10T21:31:41;21.50;29.60
72576;DHT22;60613;48.658;2.328;2022-12-10T21:34:07;21.50;29.60
72576;DHT22;60613;48.658;2.328;2022-12-10T21:36:33;21.50;29.60
72576;DHT22;60613;48.658;2.328;2022-12-10T21:38:59;21.50;29.60
72576;DHT22;60613;48.658;2.328;2022-12-10T21:41:26;21.50;29.60
72576;DHT22;60613;48.658;2.328;2022-12-10T21:44:11;21.50;29.60
72576;DHT22;60613;48.658;2.328;2022-12-10T21:46:38;21.60;29.50
72576;DHT22;60613;48.658;2.328;2022-12-10T21:49:04;21.50;29.40
72576;DHT22;60613;48.658;2.328;2022-12-10T21:51:30;21.50;29.60
72576;DHT22;60613;48.658;2.328;2022-12-10T21:53:58;21.50;30.50
72576;DHT22;60613;48.658;2.328;2022-12-10T21:56:24;21.50;29.60
72576;DHT22;60613;48.658;2.328;2022-12-10T21:58:49;21.50;29.60
